Time;durP1;ratioP1;P1;durP2;ratioP2;P2;SDS_P1;SDS_P2;PMS_P1;PMS_P2;Temp;Humidity;BMP_temperature;BMP_pressure;BME280_temperature;BME280_humidity;BME280_pressure;Samples;Min_cycle;Max_cycle;Signal;HPM_P1;HPM_P2
2022/01/10 00:01:55;;;;;;;6.07;1.48;;;4.50;93.80;;;;;;6241593;22;20050;-80
2022/01/10 00:04:57;;;;;;;5.30;1.63;;;4.50;93.80;;;;;;6218351;28;20127;-78
2022/01/10 00:08:02;;;;;;;3.40;1.25;;;4.50;93.90;;;;;;6203089;28;20046;-79
2022/01/10 00:11:04;;;;;;;2.38;1.48;;;4.50;93.90;;;;;;6213530;28;20061;-79
2022/01/10 00:14:07;;;;;;;7.07;2.35;;;4.50;93.90;;;;;;6226569;28;20388;-79
2022/01/10 00:17:09;;;;;;;3.28;1.42;;;4.50;93.80;;;;;;6226590;28;20176;-79
2022/01/10 00:20:13;;;;;;;5.45;2.08;;;4.50;93.90;;;;;;6227053;28;20585;-78
2022/01/10 00:23:15;;;;;;;7.30;2.28;;;4.60;93.90;;;;;;6226046;28;20050;-79
2022/01/10 00:26:17;;;;;;;5.60;2.05;;;4.60;93.80;;;;;;6226448;28;20042;-78
2022/01/10 00:29:20;;;;;;;9.35;2.47;;;4.60;93.80;;;;;;6225958;28;20046;-79
2022/01/10 00:32:23;;;;;;;5.43;1.73;;;4.70;93.70;;;;;;6227146;28;20077;-79
2022/01/10 00:35:25;;;;;;;7.57;2.17;;;4.70;93.70;;;;;;6220484;28;20527;-78
2022/01/10 00:38:27;;;;;;;6.68;2.17;;;4.60;93.60;;;;;;6224790;28;20569;-79
2022/01/10 00:41:28;;;;;;;9.82;3.15;;;4.60;93.70;;;;;;6226424;28;20042;-79
2022/01/10 00:44:37;;;;;;;10.23;3.53;;;4.50;93.70;;;;;;6226511;28;20050;-79
2022/01/10 00:47:39;;;;;;;7.15;2.55;;;4.50;93.80;;;;;;6225601;28;20042;-79
2022/01/10 00:50:40;;;;;;;6.68;2.53;;;4.60;93.80;;;;;;6225841;28;20124;-78
2022/01/10 00:53:44;;;;;;;10.27;3.13;;;4.50;93.80;;;;;;6225385;28;20123;-79
2022/01/10 00:56:46;;;;;;;8.15;2.65;;;4.60;93.70;;;;;;6224399;28;20491;-78
2022/01/10 00:59:49;;;;;;;6.32;2.80;;;4.60;93.70;;;;;;6225412;28;20057;-78
2022/01/10 01:02:50;;;;;;;8.68;2.28;;;4.50;93.70;;;;;;6224383;28;20475;-78
2022/01/10 01:05:52;;;;;;;8.65;2.22;;;4.50;93.70;;;;;;6226933;28;20133;-79
2022/01/10 01:08:59;;;;;;;7.13;2.25;;;4.40;93.70;;;;;;6227808;28;20054;-78
2022/01/10 01:12:20;;;;;;;10.65;2.35;;;4.40;93.70;;;;;;6226321;28;20124;-79
2022/01/10 01:15:26;;;;;;;7.68;3.30;;;4.40;93.60;;;;;;6224792;28;20050;-79
2022/01/10 01:19:01;;;;;;;6.18;2.88;;;4.40;93.70;;;;;;6225123;28;20722;-79
2022/01/10 01:25:14;;;;;;;24.95;4.57;;;4.30;93.70;;;;;;6224839;28;20042;-79
2022/01/10 01:28:16;;;;;;;13.95;3.53;;;4.30;93.70;;;;;;6227232;28;20073;-79
2022/01/10 01:31:19;;;;;;;11.88;3.05;;;4.20;93.70;;;;;;6225329;28;20673;-78
2022/01/10 01:34:22;;;;;;;7.05;2.33;;;4.20;93.80;;;;;;6224610;28;20204;-78
2022/01/10 01:37:24;;;;;;;8.38;2.90;;;4.20;93.90;;;;;;6222460;28;20057;-78
2022/01/10 01:40:29;;;;;;;7.20;2.67;;;4.10;93.80;;;;;;6226666;28;20167;-78
2022/01/10 01:43:30;;;;;;;9.63;2.95;;;4.10;93.90;;;;;;6226307;28;20054;-78
2022/01/10 01:46:35;;;;;;;10.43;2.63;;;4.00;93.80;;;;;;6226321;28;20128;-78
2022/01/10 01:49:37;;;;;;;6.43;3.00;;;4.00;93.80;;;;;;6227123;28;20045;-78
2022/01/10 01:52:39;;;;;;;7.22;3.20;;;4.00;93.80;;;;;;6222229;28;20045;-78
2022/01/10 01:55:40;;;;;;;10.27;4.35;;;4.00;93.90;;;;;;6226634;28;20050;-78
2022/01/10 01:58:45;;;;;;;8.02;3.53;;;4.00;93.90;;;;;;6226239;28;20124;-78
2022/01/10 02:01:48;;;;;;;11.07;4.88;;;4.00;93.90;;;;;;6224834;28;20559;-78
2022/01/10 02:04:50;;;;;;;8.32;3.92;;;4.10;93.90;;;;;;6225909;28;20085;-78
2022/01/10 02:07:51;;;;;;;11.30;4.00;;;4.10;93.90;;;;;;6225104;28;20046;-78
2022/01/10 02:10:53;;;;;;;8.30;3.53;;;4.10;93.90;;;;;;6224573;28;20470;-79
2022/01/10 02:13:55;;;;;;;7.40;2.88;;;4.10;93.80;;;;;;6223756;28;20080;-79
2022/01/10 02:16:58;;;;;;;11.95;4.85;;;4.20;93.80;;;;;;6224242;28;20419;-80
2022/01/10 02:20:03;;;;;;;10.35;4.03;;;4.20;93.80;;;;;;6223973;28;20121;-79
2022/01/10 02:23:05;;;;;;;18.67;5.85;;;4.20;93.70;;;;;;6223136;28;20046;-78
2022/01/10 02:26:06;;;;;;;10.88;5.25;;;4.20;93.70;;;;;;6225449;28;20064;-78
2022/01/10 02:29:08;;;;;;;17.63;4.85;;;4.20;93.80;;;;;;6227901;28;20060;-78
2022/01/10 02:32:10;;;;;;;16.65;4.28;;;4.30;93.80;;;;;;6226689;28;20084;-78
2022/01/10 02:35:21;;;;;;;10.10;4.13;;;4.30;93.90;;;;;;6226595;28;20049;-77
2022/01/10 02:38:23;;;;;;;10.02;4.63;;;4.30;93.80;;;;;;6212647;28;20419;-77
2022/01/10 02:41:26;;;;;;;11.35;4.63;;;4.30;93.80;;;;;;6227105;28;20053;-77
2022/01/10 02:44:29;;;;;;;9.38;4.68;;;4.40;93.80;;;;;;6227614;28;20435;-77
2022/01/10 02:47:31;;;;;;;11.48;4.85;;;4.40;93.90;;;;;;6226791;28;20046;-77
2022/01/10 02:50:34;;;;;;;13.73;6.60;;;4.40;93.70;;;;;;6226659;28;20085;-78
2022/01/10 02:53:36;;;;;;;15.63;7.50;;;4.40;93.80;;;;;;6227629;28;20483;-78
2022/01/10 02:56:47;;;;;;;11.93;5.88;;;4.30;93.80;;;;;;6227685;28;20193;-78
2022/01/10 02:59:48;;;;;;;19.83;6.72;;;4.40;93.80;;;;;;6226873;28;20042;-78
2022/01/10 03:02:52;;;;;;;11.75;6.30;;;4.40;93.80;;;;;;6227845;28;20076;-78
2022/01/10 03:05:55;;;;;;;14.98;6.82;;;4.40;93.80;;;;;;6232756;28;20054;-77
2022/01/10 03:09:04;;;;;;;22.20;10.23;;;4.40;93.70;;;;;;6231110;28;20049;-78
2022/01/10 03:12:07;;;;;;;23.67;11.18;;;4.40;93.80;;;;;;6225346;28;20069;-78
2022/01/10 03:15:11;;;;;;;23.48;11.65;;;4.40;93.90;;;;;;6225202;28;20515;-77
2022/01/10 03:18:13;;;;;;;23.15;11.50;;;4.40;94.00;;;;;;6225985;28;20093;-78
2022/01/10 03:21:19;;;;;;;21.85;10.07;;;4.50;94.00;;;;;;6225755;28;20056;-78
2022/01/10 03:24:21;;;;;;;30.25;11.68;;;4.50;94.10;;;;;;6226002;28;20050;-78
2022/01/10 03:27:23;;;;;;;20.42;9.27;;;4.60;94.10;;;;;;6224927;28;20041;-78
2022/01/10 03:30:26;;;;;;;26.95;10.57;;;4.60;94.10;;;;;;6221984;28;20754;-77
2022/01/10 03:33:28;;;;;;;18.50;8.15;;;4.60;94.00;;;;;;6225168;28;20049;-77
2022/01/10 03:36:31;;;;;;;22.48;8.68;;;4.60;93.90;;;;;;6224486;28;20056;-78
2022/01/10 03:39:33;;;;;;;23.90;9.32;;;4.60;93.90;;;;;;6211288;28;20092;-77
2022/01/10 03:42:35;;;;;;;17.35;9.02;;;4.50;93.80;;;;;;6200780;28;20559;-77
2022/01/10 03:45:37;;;;;;;23.10;10.00;;;4.50;93.90;;;;;;6201124;28;20045;-77
2022/01/10 03:48:38;;;;;;;24.15;11.02;;;4.60;94.00;;;;;;6201274;28;20046;-77
2022/01/10 03:51:42;;;;;;;18.55;9.75;;;4.60;94.00;;;;;;6200857;28;20500;-78
2022/01/10 03:54:44;;;;;;;18.45;8.40;;;4.70;94.00;;;;;;6209592;28;20049;-77
2022/01/10 03:57:46;;;;;;;18.45;8.35;;;4.70;93.90;;;;;;6233322;28;20046;-78
2022/01/10 04:00:48;;;;;;;15.90;7.95;;;4.80;93.90;;;;;;6230776;28;20046;-77
2022/01/10 04:03:49;;;;;;;12.77;6.82;;;4.70;93.80;;;;;;6238286;28;20047;-78
2022/01/10 04:07:01;;;;;;;19.30;8.35;;;4.70;93.60;;;;;;6254039;28;20050;-78
2022/01/10 04:10:04;;;;;;;19.20;9.43;;;4.70;93.50;;;;;;6252151;28;20048;-78
2022/01/10 04:13:06;;;;;;;14.15;7.22;;;4.60;93.70;;;;;;6251448;28;20111;-78
2022/01/10 04:16:08;;;;;;;17.00;7.57;;;4.60;93.80;;;;;;6250251;28;20076;-78
2022/01/10 04:19:10;;;;;;;17.65;8.65;;;4.60;93.80;;;;;;6251064;28;20045;-78
2022/01/10 04:22:13;;;;;;;22.17;9.63;;;4.60;93.70;;;;;;6250236;28;20076;-78
2022/01/10 04:25:15;;;;;;;28.70;14.30;;;4.60;93.80;;;;;;6250515;28;20687;-78
2022/01/10 04:28:17;;;;;;;34.42;12.85;;;4.60;93.90;;;;;;6251702;28;20113;-78
2022/01/10 04:31:18;;;;;;;25.88;12.93;;;4.60;93.90;;;;;;6251633;28;20048;-78
2022/01/10 04:34:20;;;;;;;30.02;13.00;;;4.70;94.00;;;;;;6250355;28;20076;-78
2022/01/10 04:37:23;;;;;;;21.60;11.90;;;4.70;94.30;;;;;;6249872;28;20388;-77
2022/01/10 04:40:25;;;;;;;30.38;12.93;;;4.80;93.90;;;;;;6232074;28;20443;-78
2022/01/10 04:43:27;;;;;;;23.27;10.10;;;4.80;93.90;;;;;;6225027;28;20054;-78
2022/01/10 04:46:29;;;;;;;27.20;11.85;;;4.80;93.80;;;;;;6224124;28;20046;-78
2022/01/10 04:49:42;;;;;;;28.33;12.52;;;4.80;93.80;;;;;;6224462;28;20081;-77
2022/01/10 04:52:46;;;;;;;27.92;11.73;;;4.80;93.80;;;;;;6225977;28;20050;-77
2022/01/10 04:55:47;;;;;;;28.02;11.93;;;4.80;93.80;;;;;;6225062;28;20050;-77
2022/01/10 04:58:51;;;;;;;26.73;11.50;;;4.80;93.80;;;;;;6226054;28;20101;-78
2022/01/10 05:01:53;;;;;;;24.52;10.70;;;4.90;93.80;;;;;;6226667;28;20042;-77
2022/01/10 05:04:54;;;;;;;26.35;10.68;;;4.90;93.80;;;;;;6228235;28;20049;-78
2022/01/10 05:07:57;;;;;;;27.58;11.45;;;4.90;93.70;;;;;;6228384;28;20056;-77
2022/01/10 05:11:00;;;;;;;33.03;14.40;;;4.90;93.60;;;;;;6228648;28;20411;-77
2022/01/10 05:14:02;;;;;;;28.13;13.18;;;4.80;93.40;;;;;;6227697;28;20095;-77
2022/01/10 05:17:04;;;;;;;35.00;13.95;;;4.70;93.60;;;;;;6226120;28;20072;-77
2022/01/10 05:20:06;;;;;;;27.98;12.55;;;4.70;93.90;;;;;;6224792;28;20049;-77
2022/01/10 05:23:10;;;;;;;36.13;13.40;;;4.70;93.90;;;;;;6224666;28;20164;-78
2022/01/10 05:26:11;;;;;;;31.48;12.55;;;4.80;94.00;;;;;;6223188;28;20415;-77
2022/01/10 05:29:13;;;;;;;19.40;11.82;;;4.80;93.90;;;;;;6224405;28;20139;-77
2022/01/10 05:32:15;;;;;;;32.22;12.23;;;4.90;93.90;;;;;;6224009;28;20125;-77
2022/01/10 05:35:17;;;;;;;34.72;12.85;;;4.90;93.90;;;;;;6223117;28;20098;-77
2022/01/10 05:38:20;;;;;;;29.27;12.80;;;4.80;93.70;;;;;;6224420;28;20045;-77
2022/01/10 05:41:22;;;;;;;43.10;13.02;;;4.80;93.50;;;;;;6215072;28;20888;-77
2022/01/10 05:44:25;;;;;;;25.48;11.40;;;4.80;93.70;;;;;;6226361;28;20054;-78
2022/01/10 05:47:26;;;;;;;19.88;9.90;;;4.70;93.50;;;;;;6227423;28;20053;-78
2022/01/10 05:50:34;;;;;;;22.10;11.73;;;4.70;93.70;;;;;;6228530;28;20183;-78
2022/01/10 05:53:37;;;;;;;26.27;11.52;;;4.80;93.80;;;;;;6228967;28;20049;-78
2022/01/10 05:56:39;;;;;;;29.75;12.10;;;4.70;93.80;;;;;;6227275;28;20050;-78
2022/01/10 05:59:41;;;;;;;25.05;11.77;;;4.80;93.90;;;;;;6225743;28;20052;-78
2022/01/10 06:02:42;;;;;;;21.90;11.23;;;4.80;93.80;;;;;;6226041;28;20414;-79
2022/01/10 06:05:44;;;;;;;28.83;13.18;;;4.80;93.70;;;;;;6224536;28;20041;-79
2022/01/10 06:08:48;;;;;;;34.38;14.35;;;4.80;93.90;;;;;;6224470;28;20064;-78
2022/01/10 06:11:49;;;;;;;31.45;13.63;;;4.70;93.60;;;;;;6223883;28;20046;-79
2022/01/10 06:14:51;;;;;;;33.17;13.63;;;4.70;93.80;;;;;;6224643;28;20100;-78
2022/01/10 06:17:53;;;;;;;33.13;13.98;;;4.70;93.80;;;;;;6225509;28;20046;-79
2022/01/10 06:20:55;;;;;;;30.52;12.95;;;4.80;93.90;;;;;;6224732;28;20046;-79
2022/01/10 06:23:58;;;;;;;28.92;12.55;;;4.80;94.00;;;;;;6224520;28;20419;-80
2022/01/10 06:27:00;;;;;;;30.88;13.27;;;4.80;94.00;;;;;;6224639;28;20054;-79
2022/01/10 06:30:03;;;;;;;30.08;14.82;;;4.80;94.00;;;;;;6225133;28;20079;-78
2022/01/10 06:33:05;;;;;;;32.40;14.40;;;4.80;93.70;;;;;;6225869;28;20176;-78
2022/01/10 06:36:08;;;;;;;28.70;13.30;;;4.80;93.70;;;;;;6230733;28;20053;-77
2022/01/10 06:39:11;;;;;;;27.02;11.90;;;4.80;93.80;;;;;;6232705;28;20045;-76
2022/01/10 06:42:13;;;;;;;31.60;13.55;;;4.80;93.80;;;;;;6217893;28;20092;-77
2022/01/10 06:45:15;;;;;;;35.58;14.57;;;4.80;93.80;;;;;;6225732;28;20061;-78
2022/01/10 06:48:17;;;;;;;36.80;14.18;;;4.80;93.80;;;;;;6227018;28;20057;-78
2022/01/10 06:51:19;;;;;;;36.75;15.10;;;4.80;93.80;;;;;;6228093;28;20053;-78
2022/01/10 06:54:22;;;;;;;35.05;15.93;;;4.90;93.80;;;;;;6227895;28;20129;-79
2022/01/10 06:57:24;;;;;;;42.00;15.23;;;4.90;93.80;;;;;;6226881;28;20054;-79
2022/01/10 07:00:25;;;;;;;31.88;13.45;;;4.90;93.80;;;;;;6227797;28;20049;-78
2022/01/10 07:03:27;;;;;;;31.67;12.95;;;4.90;93.70;;;;;;6227199;28;20042;-79
2022/01/10 07:06:29;;;;;;;35.40;14.02;;;5.00;93.70;;;;;;6227452;28;20053;-79
2022/01/10 07:09:32;;;;;;;30.90;13.88;;;5.00;93.70;;;;;;6227731;28;20566;-79
2022/01/10 07:12:34;;;;;;;32.65;12.98;;;5.00;93.70;;;;;;6230555;28;20042;-79
2022/01/10 07:15:36;;;;;;;34.08;14.30;;;5.00;93.60;;;;;;6231062;28;20052;-78
2022/01/10 07:18:38;;;;;;;28.05;14.30;;;5.10;93.80;;;;;;6231422;28;20137;-79
2022/01/10 07:21:40;;;;;;;32.95;15.48;;;5.10;93.60;;;;;;6232146;28;20381;-78
2022/01/10 07:24:43;;;;;;;33.53;14.32;;;5.10;93.60;;;;;;6231409;28;20128;-79
2022/01/10 07:27:45;;;;;;;34.40;15.45;;;4.90;93.50;;;;;;6230862;28;20046;-78
2022/01/10 07:30:49;;;;;;;33.22;14.70;;;4.90;93.90;;;;;;6231256;28;20130;-79
2022/01/10 07:33:50;;;;;;;39.90;16.88;;;4.90;93.90;;;;;;6230872;28;20045;-78
2022/01/10 07:36:52;;;;;;;36.90;16.35;;;5.00;93.90;;;;;;6231622;28;20058;-79
2022/01/10 07:39:55;;;;;;;33.38;16.55;;;5.10;93.70;;;;;;6229920;28;20054;-79
2022/01/10 07:42:57;;;;;;;34.30;16.08;;;5.10;93.70;;;;;;6221208;28;20100;-78
2022/01/10 07:45:59;;;;;;;44.97;17.73;;;5.20;93.70;;;;;;6208160;28;20049;-80
2022/01/10 07:49:02;;;;;;;40.50;17.50;;;5.30;93.70;;;;;;6206297;28;20445;-78
2022/01/10 07:52:04;;;;;;;35.08;15.90;;;5.30;93.70;;;;;;6205225;28;20082;-79
2022/01/10 07:55:08;;;;;;;37.58;15.60;;;5.30;93.60;;;;;;6205786;28;20053;-79
2022/01/10 07:58:10;;;;;;;34.17;16.08;;;5.30;93.40;;;;;;6205927;28;20039;-78
2022/01/10 08:01:12;;;;;;;30.88;14.80;;;5.30;93.50;;;;;;6206326;28;20117;-79
2022/01/10 08:04:15;;;;;;;32.10;13.85;;;5.30;93.50;;;;;;6205825;28;20056;-78
2022/01/10 08:07:17;;;;;;;31.88;13.45;;;5.30;93.60;;;;;;6204957;28;20050;-78
2022/01/10 08:10:20;;;;;;;31.40;13.68;;;5.30;93.50;;;;;;6204905;28;20074;-78
2022/01/10 08:13:23;;;;;;;30.85;14.63;;;5.30;93.60;;;;;;6203876;28;20046;-78
2022/01/10 08:16:25;;;;;;;29.98;13.18;;;5.30;93.70;;;;;;6205003;28;20129;-78
2022/01/10 08:19:30;;;;;;;32.17;15.52;;;5.40;93.70;;;;;;6203670;28;20054;-79
2022/01/10 08:22:32;;;;;;;43.50;17.67;;;5.50;93.70;;;;;;6204187;28;20053;-79
2022/01/10 08:25:35;;;;;;;35.80;16.25;;;5.60;93.60;;;;;;6203555;28;20424;-78
2022/01/10 08:28:38;;;;;;;30.52;13.82;;;5.70;93.60;;;;;;6204869;28;20165;-78
2022/01/10 08:31:39;;;;;;;34.53;15.18;;;5.70;93.70;;;;;;6203392;28;20046;-78
2022/01/10 08:34:41;;;;;;;37.17;15.35;;;5.80;93.70;;;;;;6203866;28;20057;-77
2022/01/10 08:37:43;;;;;;;33.40;16.75;;;5.80;93.70;;;;;;6203762;28;20098;-78
2022/01/10 08:40:47;;;;;;;34.20;16.50;;;6.10;93.60;;;;;;6203266;28;20423;-78
2022/01/10 08:43:49;;;;;;;42.35;19.15;;;6.30;93.70;;;;;;6214823;28;20110;-79
2022/01/10 08:46:51;;;;;;;37.22;17.63;;;6.40;93.60;;;;;;6203792;28;20113;-78
2022/01/10 08:49:53;;;;;;;48.38;18.15;;;6.60;93.40;;;;;;6204730;28;20157;-78
2022/01/10 08:52:55;;;;;;;34.00;18.00;;;6.80;93.30;;;;;;6203479;28;20050;-78
2022/01/10 08:55:58;;;;;;;36.22;19.02;;;6.90;93.00;;;;;;6203177;28;20455;-78
2022/01/10 08:58:59;;;;;;;33.17;14.98;;;6.90;92.00;;;;;;6203411;28;20129;-78
2022/01/10 09:02:02;;;;;;;22.40;12.75;;;6.90;92.60;;;;;;6203669;28;20042;-79
2022/01/10 09:05:04;;;;;;;26.08;12.15;;;6.80;93.00;;;;;;6202285;28;20057;-78
2022/01/10 09:08:06;;;;;;;24.10;12.20;;;6.80;92.80;;;;;;6202878;28;20072;-78
2022/01/10 09:11:10;;;;;;;22.73;12.20;;;6.80;92.90;;;;;;6195963;28;20420;-78
2022/01/10 09:14:13;;;;;;;23.60;11.63;;;6.80;93.00;;;;;;6224807;28;20133;-78
2022/01/10 09:17:15;;;;;;;19.75;11.70;;;6.90;93.00;;;;;;6250442;28;20055;-79
2022/01/10 09:20:17;;;;;;;28.30;13.20;;;7.00;92.90;;;;;;6229441;28;20054;-78
2022/01/10 09:23:19;;;;;;;21.85;11.02;;;7.10;93.20;;;;;;6247134;28;20068;-79
2022/01/10 09:26:22;;;;;;;24.63;11.30;;;7.40;93.00;;;;;;6222589;28;20066;-79
2022/01/10 09:29:24;;;;;;;18.38;10.18;;;7.80;92.70;;;;;;6223608;28;20061;-81
2022/01/10 09:32:26;;;;;;;16.55;8.75;;;8.10;92.30;;;;;;6223527;28;20082;-77
2022/01/10 09:35:28;;;;;;;16.50;8.00;;;8.20;91.90;;;;;;6222356;28;20045;-78
2022/01/10 09:38:29;;;;;;;22.80;8.48;;;8.40;91.70;;;;;;6223222;28;20071;-78
2022/01/10 09:41:33;;;;;;;12.63;7.43;;;8.50;91.20;;;;;;6223319;28;20545;-78
2022/01/10 09:44:35;;;;;;;19.00;8.95;;;8.50;91.40;;;;;;6223532;28;20184;-80
2022/01/10 09:47:37;;;;;;;15.30;8.07;;;8.40;91.60;;;;;;6222526;28;20050;-79
2022/01/10 09:50:38;;;;;;;15.50;8.20;;;8.50;91.30;;;;;;6222556;28;20065;-80
2022/01/10 09:53:40;;;;;;;18.27;7.40;;;8.60;91.80;;;;;;6223164;28;20048;-79
2022/01/10 09:56:47;;;;;;;13.65;7.95;;;8.90;91.00;;;;;;6223571;28;20050;-79
2022/01/10 09:59:49;;;;;;;16.05;8.32;;;9.10;90.60;;;;;;6222776;28;20396;-81
2022/01/10 10:02:51;;;;;;;14.45;6.95;;;9.40;89.30;;;;;;6225420;28;20100;-82
2022/01/10 10:05:53;;;;;;;12.18;6.07;;;9.70;89.30;;;;;;6229121;28;20049;-80
2022/01/10 10:08:58;;;;;;;17.30;6.38;;;10.10;87.70;;;;;;6234110;28;20145;-78
2022/01/10 10:12:02;;;;;;;12.50;4.80;;;10.50;86.90;;;;;;6245653;28;20049;-79
2022/01/10 10:15:06;;;;;;;13.95;5.50;;;10.80;86.30;;;;;;6245378;28;20045;-80
2022/01/10 10:18:09;;;;;;;12.38;6.07;;;11.20;84.90;;;;;;6254681;28;20041;-81
2022/01/10 10:21:12;;;;;;;11.55;5.97;;;11.60;83.60;;;;;;6255559;28;20180;-81
2022/01/10 10:24:14;;;;;;;11.65;6.47;;;11.80;81.30;;;;;;6254212;28;20052;-80
2022/01/10 10:27:20;;;;;;;11.15;6.10;;;12.00;80.50;;;;;;6248623;28;20042;-81
2022/01/10 10:30:26;;;;;;;15.55;6.55;;;12.40;80.10;;;;;;6219762;28;20052;-80
2022/01/10 10:33:28;;;;;;;12.60;6.05;;;12.50;79.30;;;;;;6227898;28;20405;-80
2022/01/10 10:36:32;;;;;;;7.80;4.85;;;12.80;77.40;;;;;;6205422;28;20508;-80
2022/01/10 10:39:35;;;;;;;11.20;4.53;;;13.00;77.40;;;;;;6211287;28;20050;-79
2022/01/10 10:42:39;;;;;;;12.13;4.63;;;13.20;73.90;;;;;;6211280;28;20066;-80
2022/01/10 10:45:41;;;;;;;9.13;4.80;;;13.20;74.00;;;;;;6240083;28;20046;-80
2022/01/10 10:48:45;;;;;;;14.80;5.25;;;13.10;72.40;;;;;;6242276;28;20073;-79
2022/01/10 10:51:50;;;;;;;10.52;4.63;;;13.00;72.70;;;;;;6238486;28;20475;-80
2022/01/10 10:54:55;;;;;;;10.45;4.28;;;12.90;72.90;;;;;;6234461;28;20054;-80
2022/01/10 10:57:58;;;;;;;9.82;4.90;;;12.60;74.10;;;;;;6234127;28;20046;-80
2022/01/10 11:01:02;;;;;;;16.55;6.55;;;12.40;76.10;;;;;;6233642;28;20058;-80
2022/01/10 11:04:05;;;;;;;12.95;6.53;;;12.20;74.80;;;;;;6233505;28;20046;-80
2022/01/10 11:07:09;;;;;;;13.35;5.40;;;11.80;75.20;;;;;;6234169;28;20526;-80
2022/01/10 11:10:11;;;;;;;11.20;5.00;;;11.60;75.70;;;;;;6235817;28;20448;-80
2022/01/10 11:13:15;;;;;;;11.32;5.25;;;11.50;76.00;;;;;;6243223;28;20044;-81
2022/01/10 11:16:17;;;;;;;18.83;6.60;;;11.70;76.30;;;;;;6248736;28;20422;-80
2022/01/10 11:19:22;;;;;;;7.53;4.88;;;11.90;75.60;;;;;;6243931;28;20530;-80
2022/01/10 11:22:24;;;;;;;12.20;5.10;;;12.20;75.80;;;;;;6231962;28;20049;-79
2022/01/10 11:25:28;;;;;;;11.18;5.05;;;12.60;75.60;;;;;;6233336;28;20057;-81
2022/01/10 11:28:31;;;;;;;13.25;4.85;;;13.00;75.00;;;;;;6233456;28;20100;-81
2022/01/10 11:31:32;;;;;;;14.98;6.18;;;13.40;72.60;;;;;;6234014;28;20132;-80
2022/01/10 11:34:34;;;;;;;10.73;4.07;;;13.90;72.00;;;;;;6232048;28;20056;-80
2022/01/10 11:37:36;;;;;;;10.63;4.20;;;14.50;70.30;;;;;;6231695;28;20140;-81
2022/01/10 11:40:38;;;;;;;8.55;4.25;;;15.00;68.30;;;;;;6232288;28;20147;-81
2022/01/10 11:43:46;;;;;;;12.23;4.50;;;15.40;62.60;;;;;;6239447;28;20055;-81
2022/01/10 11:46:52;;;;;;;10.80;3.13;;;15.80;61.60;;;;;;6238014;28;20057;-81
2022/01/10 11:50:26;;;;;;;11.88;2.35;;;15.90;59.20;;;;;;6227710;28;20077;-80
2022/01/10 11:53:28;;;;;;;15.35;4.65;;;16.20;61.60;;;;;;6231466;28;20164;-80
2022/01/10 11:56:31;;;;;;;8.85;3.45;;;16.40;59.70;;;;;;6229998;28;20050;-81
2022/01/10 11:59:36;;;;;;;9.73;5.30;;;16.60;59.50;;;;;;6228904;28;20042;-81
2022/01/10 12:02:38;;;;;;;15.07;5.03;;;16.90;59.50;;;;;;6229660;28;20046;-81
2022/01/10 12:05:40;;;;;;;14.20;4.32;;;17.20;58.40;;;;;;6229259;28;20049;-79
2022/01/10 12:08:43;;;;;;;9.95;3.92;;;17.40;57.50;;;;;;6230759;28;20492;-81
2022/01/10 12:11:46;;;;;;;8.52;4.28;;;17.30;57.00;;;;;;6233385;28;20046;-82
2022/01/10 12:14:51;;;;;;;10.82;3.78;;;16.90;56.00;;;;;;6243039;28;20060;-81
2022/01/10 12:17:53;;;;;;;10.18;3.80;;;16.40;57.50;;;;;;6255417;28;20048;-82
2022/01/10 12:20:55;;;;;;;6.72;3.28;;;15.80;58.60;;;;;;6255546;28;20136;-81
2022/01/10 12:23:57;;;;;;;9.02;4.00;;;15.00;59.40;;;;;;6255111;28;20037;-81
2022/01/10 12:26:59;;;;;;;12.77;3.72;;;14.50;62.40;;;;;;6254042;28;20050;-82
2022/01/10 12:30:04;;;;;;;27.23;8.20;;;14.00;63.60;;;;;;6253979;28;20491;-80
2022/01/10 12:33:06;;;;;;;34.70;12.00;;;13.60;64.80;;;;;;6254613;28;20049;-80
2022/01/10 12:36:08;;;;;;;30.42;10.93;;;13.20;66.30;;;;;;6253907;28;20057;-81
2022/01/10 12:39:17;;;;;;;12.35;6.40;;;12.90;67.20;;;;;;6254273;28;20045;-81
2022/01/10 12:42:19;;;;;;;11.00;7.03;;;12.60;68.50;;;;;;6253098;28;20042;-79
2022/01/10 12:45:23;;;;;;;16.48;4.60;;;12.50;68.30;;;;;;6238077;28;20049;-81
2022/01/10 12:48:25;;;;;;;12.40;4.05;;;12.60;68.70;;;;;;6225289;28;20076;-80
2022/01/10 12:51:27;;;;;;;13.10;3.92;;;13.00;66.80;;;;;;6228437;28;20119;-79
2022/01/10 12:54:30;;;;;;;18.67;4.95;;;13.30;63.40;;;;;;6227150;28;20129;-80
2022/01/10 12:57:31;;;;;;;11.00;3.45;;;13.40;64.50;;;;;;6227871;28;20060;-80
2022/01/10 13:00:35;;;;;;;7.82;3.08;;;13.60;62.60;;;;;;6227907;28;20046;-80
2022/01/10 13:03:37;;;;;;;8.45;3.15;;;14.00;62.90;;;;;;6227422;28;20038;-80
2022/01/10 13:06:43;;;;;;;8.15;2.97;;;14.20;62.70;;;;;;6226695;28;20046;-80
2022/01/10 13:09:47;;;;;;;8.82;3.25;;;14.20;63.30;;;;;;6227813;28;20042;-83
2022/01/10 13:12:51;;;;;;;11.25;3.63;;;14.20;64.20;;;;;;6228025;28;20050;-81
2022/01/10 13:15:54;;;;;;;11.88;2.63;;;14.20;64.20;;;;;;6243405;28;20041;-79
2022/01/10 13:19:02;;;;;;;7.30;2.30;;;13.80;62.70;;;;;;6240809;28;20549;-80
2022/01/10 13:22:07;;;;;;;;;;;13.50;65.90;;;;;;6252109;28;20264;-80
2022/01/10 13:25:14;;;;;;;7.03;2.67;;;13.30;66.90;;;;;;6251366;28;19974;-81
2022/01/10 13:28:16;;;;;;;10.60;5.22;;;13.10;63.90;;;;;;6251078;28;20144;-77
2022/01/10 13:31:19;;;;;;;11.50;3.55;;;12.90;63.80;;;;;;6250573;28;20129;-80
2022/01/10 13:34:26;;;;;;;9.80;3.05;;;12.60;64.00;;;;;;6251627;28;20043;-81
2022/01/10 13:37:30;;;;;;;13.75;3.45;;;12.50;66.50;;;;;;6251194;28;20410;-80
2022/01/10 13:40:40;;;;;;;5.95;2.38;;;12.60;67.70;;;;;;6251980;28;20063;-81
2022/01/10 13:43:42;;;;;;;10.68;3.08;;;12.80;66.50;;;;;;6265945;28;20052;-78
2022/01/10 13:46:46;;;;;;;7.82;3.03;;;12.90;62.90;;;;;;6259572;28;20041;-80
2022/01/10 13:49:47;;;;;;;10.95;3.13;;;12.70;66.10;;;;;;6225461;28;20061;-81
2022/01/10 13:53:10;;;;;;;8.80;3.00;;;12.60;65.00;;;;;;6229620;28;20162;-80
2022/01/10 13:56:14;;;;;;;10.50;2.72;;;12.40;65.90;;;;;;6227553;28;20052;-81
2022/01/10 13:59:19;;;;;;;7.18;2.95;;;12.00;63.40;;;;;;6227863;28;20049;-80
2022/01/10 14:02:22;;;;;;;4.68;2.63;;;11.40;63.60;;;;;;6228838;28;20050;-80
2022/01/10 14:05:26;;;;;;;8.80;3.22;;;11.00;64.30;;;;;;6227957;28;20046;-79
2022/01/10 14:08:27;;;;;;;9.38;2.85;;;10.70;66.20;;;;;;6233484;28;20112;-81
2022/01/10 14:11:31;;;;;;;4.50;2.83;;;10.50;70.60;;;;;;6231303;28;20133;-82
2022/01/10 14:14:33;;;;;;;12.50;3.47;;;10.40;70.00;;;;;;6236781;28;20419;-81
2022/01/10 14:17:36;;;;;;;8.93;3.08;;;10.30;70.30;;;;;;6253017;28;20057;-81
2022/01/10 14:20:38;;;;;;;14.68;3.03;;;10.20;72.60;;;;;;6253589;28;20045;-80
2022/01/10 14:23:40;;;;;;;7.22;3.28;;;10.20;73.60;;;;;;6256756;28;20136;-80
2022/01/10 14:26:42;;;;;;;38.35;17.13;;;10.20;75.00;;;;;;6256116;28;20191;-80
2022/01/10 14:29:44;;;;;;;12.95;5.72;;;10.20;75.60;;;;;;6256357;28;20127;-80
2022/01/10 14:32:49;;;;;;;11.52;3.75;;;10.30;76.00;;;;;;6256291;28;20056;-81
2022/01/10 14:35:52;;;;;;;7.30;3.97;;;10.30;74.20;;;;;;6256078;28;20049;-80
2022/01/10 14:38:54;;;;;;;6.97;2.58;;;10.30;74.90;;;;;;6255440;28;20387;-81
2022/01/10 14:41:57;;;;;;;8.05;3.60;;;10.40;73.20;;;;;;6255459;28;20072;-80
2022/01/10 14:44:58;;;;;;;11.15;3.67;;;10.30;72.50;;;;;;6242818;28;20046;-82
2022/01/10 14:48:01;;;;;;;10.32;3.00;;;10.20;70.10;;;;;;6230986;28;20048;-81
2022/01/10 14:51:06;;;;;;;7.18;2.67;;;10.20;73.40;;;;;;6213273;28;20042;-80
2022/01/10 14:54:08;;;;;;;6.97;3.17;;;10.30;74.40;;;;;;6206391;28;20096;-82
2022/01/10 14:57:10;;;;;;;7.22;3.65;;;10.30;73.10;;;;;;6207187;28;20086;-81
2022/01/10 15:00:13;;;;;;;12.43;3.72;;;10.20;70.10;;;;;;6206024;28;20056;-81
2022/01/10 15:03:19;;;;;;;7.82;3.58;;;10.10;72.10;;;;;;6205930;28;20038;-83
2022/01/10 15:06:21;;;;;;;11.10;3.55;;;10.00;72.60;;;;;;6206962;28;20070;-82
2022/01/10 15:09:22;;;;;;;7.30;3.80;;;10.00;74.40;;;;;;6220508;28;20084;-83
2022/01/10 15:12:24;;;;;;;7.28;3.20;;;9.90;71.10;;;;;;6211782;28;20055;-82
2022/01/10 15:15:26;;;;;;;14.70;4.05;;;9.70;70.50;;;;;;6249724;28;20052;-80
2022/01/10 15:18:29;;;;;;;11.00;3.05;;;9.50;72.90;;;;;;6257146;28;20128;-80
2022/01/10 15:21:31;;;;;;;9.38;2.83;;;9.30;74.20;;;;;;6255839;28;20056;-80
2022/01/10 15:24:33;;;;;;;11.07;3.85;;;9.20;75.40;;;;;;6255022;28;20505;-79
2022/01/10 15:27:35;;;;;;;10.73;3.92;;;9.00;76.10;;;;;;6221942;28;20045;-81
2022/01/10 15:30:37;;;;;;;23.98;3.67;;;8.90;77.30;;;;;;6256023;28;20120;-79
2022/01/10 15:33:41;;;;;;;12.73;4.45;;;8.80;77.50;;;;;;6236084;28;20253;-79
2022/01/10 15:36:43;;;;;;;11.50;3.88;;;8.70;77.10;;;;;;6231096;28;20424;-80
2022/01/10 15:39:45;;;;;;;13.40;3.63;;;8.50;77.60;;;;;;6248992;28;20118;-80
2022/01/10 15:42:47;;;;;;;16.85;4.28;;;8.30;78.60;;;;;;6252044;28;20196;-79
2022/01/10 15:45:49;;;;;;;19.25;3.60;;;8.20;79.00;;;;;;6237165;28;20177;-78
2022/01/10 15:48:52;;;;;;;12.05;3.88;;;8.00;79.60;;;;;;6230743;28;20113;-80
2022/01/10 15:51:54;;;;;;;9.65;3.55;;;7.90;80.30;;;;;;6200774;28;20137;-80